Avery, Arkansas
Current Conditions -  °F | °C
As of 9:53 AM on Monday 22 Dec 2014 (Local Time) from KLLQ Reporting Station
Haze Haze  
Wind Chill: 52°   Ceiling: 300
Heat Index: 52°   Visibility: 6mi
Dew Point: 50°   Wind: 10mph
Humidity: 93%   Direction: 160°SSE
Pressure: 29.76"   Gusts: NA
Location:  33.9283°N, 91.468°W
Report Text: KLLQ 221553Z AUTO 16009KT 6SM BR OVC003 11/10 A2976 RMK AO2 SLP076 T01110100
Loading
Personal Weather Stations






























Interactive Weather Map New forecast layout! Learn more

10-Day Weather Forecast

Advertisements
Track Severe Weather on mobile